Avalon Express — WDD7919 — position and weather

sailwx.info

Track history (hours):
 
Tides and Currents Weather Stations Pressure Air Temp Water Temp Dewpoint Dewpoint Depression Visibility Wind Speed Wind Dir Waves Ship Positions

Avalon Express

Owner: RGWT INC, San Pedro, CA. More information available from US FCC via Universal Licensing System and Coast Guard Vessel Documentation Center.

Last reported at 2016-May-05 02:24 UTC. Time now 2016-May-05 08:30 UTC.
Position N 33°45' W 118°16'.

Length 33 m.

Type: High speed craft. MMSI: 367192940.

Date/timePositionNaut miles runAvg speedWind from/ knotsBaromVisibWave heightAir tempDewpointWater temp
2016-May-05 02:24N 33°45' W 118°16'3 0.7
2016-May-04 22:31N 33°43' W 118°15'3 2.7
2016-May-04 21:33N 33°45' W 118°16'0 0.0
2016-May-04 20:34N 33°45' W 118°16'1 1.4
2016-May-04 19:31N 33°44' W 118°16'2 0.7
2016-May-04 16:22N 33°42' W 118°15'4 4.3
2016-May-04 15:32N 33°45' W 118°16'0 0.0
2016-May-04 14:33N 33°45' W 118°16'0 0.0
2016-May-04 13:33N 33°45' W 118°16'0 0.0
2016-May-04 12:33N 33°45' W 118°16'0 0.0
2016-May-04 03:23N 33°45' W 118°16'0 0.0
2016-May-04 02:33N 33°45' W 118°16'8 7.1
2016-May-04 01:28N 33°37' W 118°14'1715.2
2016-May-04 00:20N 33°21' W 118°19'10 9.4
2016-May-03 23:16N 33°28' W 118°27'1825.3
2016-May-03 22:33N 33°43' W 118°15'2 2.3
2016-May-03 21:34N 33°45' W 118°16'0 0.0
2016-May-03 20:34N 33°45' W 118°16'1 1.0
2016-May-03 19:33N 33°44' W 118°16'2014.4
2016-May-03 18:11N 33°27' W 118°29'1012.1
2016-May-03 17:21N 33°21' W 118°19'1619.9
2016-May-03 16:33N 33°36' W 118°16'8 8.5
2016-May-03 15:33N 33°45' W 118°16'0 0.0
2016-May-03 02:04N 33°45' W 118°16'1114.9
2016-May-03 01:19N 33°34' W 118°16'9 3.3
2016-May-02 22:33N 33°43' W 118°15'2 2.3
2016-May-02 21:33N 33°45' W 118°16'0 0.0
2016-May-02 20:33N 33°45' W 118°16'2 2.1
2016-May-02 19:29N 33°43' W 118°15'0 0.1
2016-May-02 16:17N 33°43' W 118°15'2 3.4
2016-May-02 15:33N 33°45' W 118°16'0 0.0
2016-May-02 14:33N 33°45' W 118°16'0 0.0
2016-May-02 13:33N 33°45' W 118°16'0 0.0
2016-May-02 12:33N 33°45' W 118°16'0 0.0
2016-May-02 03:25N 33°45' W 118°16'0 0.0
2016-May-02 02:34N 33°45' W 118°16'0 0.1
2016-May-01 23:33N 33°45' W 118°17'0 0.2
2016-May-01 22:34N 33°45' W 118°16'2 0.7
2016-May-01 19:31N 33°43' W 118°16'2 2.3
2016-May-01 18:33N 33°45' W 118°16'3 1.0
2016-May-01 15:19N 33°42' W 118°15'3 4.2
2016-May-01 14:33N 33°45' W 118°16'0 0.0
2016-May-01 13:29N 33°45' W 118°16'0 0.0
2016-May-01 02:33N 33°45' W 118°16'5 1.7
2016-Apr-30 23:27N 33°40' W 118°15'5 5.9
2016-Apr-30 22:34N 33°45' W 118°16'0 0.0
2016-Apr-30 21:33N 33°45' W 118°16'1 1.1
2016-Apr-30 20:30N 33°44' W 118°16'2 0.8
2016-Apr-30 18:07N 33°42' W 118°15'3 5.1
2016-Apr-30 17:32N 33°45' W 118°16'0 0.1
2016-Apr-30 16:33N 33°45' W 118°16'0 0.0
2016-Apr-30 15:33N 33°45' W 118°16'0 0.0
2016-Apr-30 14:33N 33°45' W 118°16'0 0.0
2016-Apr-30 13:33N 33°45' W 118°16'0 0.0
2016-Apr-29 21:19N 33°45' W 118°16'0 0.1
2016-Apr-29 20:33N 33°45' W 118°16'0 0.0
2016-Apr-29 17:10N 33°45' W 118°16'0 0.0
2016-Apr-29 16:33N 33°45' W 118°16'0 0.0
2016-Apr-29 15:32N 33°45' W 118°16'0 0.0
2016-Apr-29 14:33N 33°45' W 118°16'0 0.0
2016-Apr-29 13:33N 33°45' W 118°16'0 0.0
2016-Apr-29 12:33N 33°45' W 118°16'0 0.0
2016-Apr-29 02:33N 33°45' W 118°16'2 0.6
2016-Apr-28 22:33N 33°43' W 118°15'2 2.4
2016-Apr-28 21:33N 33°45' W 118°16'0 0.0
2016-Apr-28 20:33N 33°45' W 118°16'0 0.0
2016-Apr-28 16:04N 33°45' W 118°16'0 0.0
2016-Apr-28 15:33N 33°45' W 118°16'0 0.1
2016-Apr-28 14:33N 33°45' W 118°16'0 0.0
2016-Apr-28 13:33N 33°45' W 118°16'0 0.0
2016-Apr-27 17:17N 33°45' W 118°16'0 0.1
2016-Apr-27 16:28N 33°45' W 118°16'0 0.0
2016-Apr-27 15:33N 33°45' W 118°16'0 0.0
2016-Apr-27 13:33N 33°45' W 118°16'0 0.0
2016-Apr-27 12:33N 33°45' W 118°16'0 0.0
2016-Apr-26 20:27N 33°45' W 118°16'2 1.8
2016-Apr-26 19:33N 33°43' W 118°16'1 0.4
2016-Apr-26 17:18N 33°43' W 118°15'2 3.1
2016-Apr-26 16:33N 33°45' W 118°16'0 0.1
2016-Apr-26 15:34N 33°45' W 118°16'0 0.0
2016-Apr-26 14:22N 33°45' W 118°16'0 0.0
2016-Apr-25 16:27N 33°45' W 118°16'0 0.1
2016-Apr-25 15:33N 33°45' W 118°16'0 0.0
2016-Apr-25 14:33N 33°45' W 118°16'0 0.0
2016-Apr-25 13:33N 33°45' W 118°16'  
Track history (hours):
 
Tides and Currents Weather Stations Pressure Air Temp Water Temp Dewpoint Dewpoint Depression Visibility Wind Speed Wind Dir Waves Ship Positions

Avalon Express

Owner: RGWT INC, San Pedro, CA. More information available from US FCC via Universal Licensing System and Coast Guard Vessel Documentation Center.

Last reported at 2016-May-05 02:24 UTC. Time now 2016-May-05 08:30 UTC.
Position N 33°45' W 118°16'.

Length 33 m.

Type: High speed craft. MMSI: 367192940.

Date/timePositionNaut miles runAvg speedWind from/ knotsBaromVisibWave heightAir tempDewpointWater temp
2016-May-05 02:24N 33°45' W 118°16'3 0.7
2016-May-04 22:31N 33°43' W 118°15'3 2.7
2016-May-04 21:33N 33°45' W 118°16'0 0.0
2016-May-04 20:34N 33°45' W 118°16'1 1.4
2016-May-04 19:31N 33°44' W 118°16'2 0.7
2016-May-04 16:22N 33°42' W 118°15'4 4.3
2016-May-04 15:32N 33°45' W 118°16'0 0.0
2016-May-04 14:33N 33°45' W 118°16'0 0.0
2016-May-04 13:33N 33°45' W 118°16'0 0.0
2016-May-04 12:33N 33°45' W 118°16'0 0.0
2016-May-04 03:23N 33°45' W 118°16'0 0.0
2016-May-04 02:33N 33°45' W 118°16'8 7.1
2016-May-04 01:28N 33°37' W 118°14'1715.2
2016-May-04 00:20N 33°21' W 118°19'10 9.4
2016-May-03 23:16N 33°28' W 118°27'1825.3
2016-May-03 22:33N 33°43' W 118°15'2 2.3
2016-May-03 21:34N 33°45' W 118°16'0 0.0
2016-May-03 20:34N 33°45' W 118°16'1 1.0
2016-May-03 19:33N 33°44' W 118°16'2014.4
2016-May-03 18:11N 33°27' W 118°29'1012.1
2016-May-03 17:21N 33°21' W 118°19'1619.9
2016-May-03 16:33N 33°36' W 118°16'8 8.5
2016-May-03 15:33N 33°45' W 118°16'0 0.0
2016-May-03 02:04N 33°45' W 118°16'1114.9
2016-May-03 01:19N 33°34' W 118°16'9 3.3
2016-May-02 22:33N 33°43' W 118°15'2 2.3
2016-May-02 21:33N 33°45' W 118°16'0 0.0
2016-May-02 20:33N 33°45' W 118°16'2 2.1
2016-May-02 19:29N 33°43' W 118°15'0 0.1
2016-May-02 16:17N 33°43' W 118°15'2 3.4
2016-May-02 15:33N 33°45' W 118°16'0 0.0
2016-May-02 14:33N 33°45' W 118°16'0 0.0
2016-May-02 13:33N 33°45' W 118°16'0 0.0
2016-May-02 12:33N 33°45' W 118°16'0 0.0
2016-May-02 03:25N 33°45' W 118°16'0 0.0
2016-May-02 02:34N 33°45' W 118°16'0 0.1
2016-May-01 23:33N 33°45' W 118°17'0 0.2
2016-May-01 22:34N 33°45' W 118°16'2 0.7
2016-May-01 19:31N 33°43' W 118°16'2 2.3
2016-May-01 18:33N 33°45' W 118°16'3 1.0
2016-May-01 15:19N 33°42' W 118°15'3 4.2
2016-May-01 14:33N 33°45' W 118°16'0 0.0
2016-May-01 13:29N 33°45' W 118°16'0 0.0
2016-May-01 02:33N 33°45' W 118°16'5 1.7
2016-Apr-30 23:27N 33°40' W 118°15'5 5.9
2016-Apr-30 22:34N 33°45' W 118°16'0 0.0
2016-Apr-30 21:33N 33°45' W 118°16'1 1.1
2016-Apr-30 20:30N 33°44' W 118°16'2 0.8
2016-Apr-30 18:07N 33°42' W 118°15'3 5.1
2016-Apr-30 17:32N 33°45' W 118°16'0 0.1
2016-Apr-30 16:33N 33°45' W 118°16'0 0.0
2016-Apr-30 15:33N 33°45' W 118°16'0 0.0
2016-Apr-30 14:33N 33°45' W 118°16'0 0.0
2016-Apr-30 13:33N 33°45' W 118°16'0 0.0
2016-Apr-29 21:19N 33°45' W 118°16'0 0.1
2016-Apr-29 20:33N 33°45' W 118°16'0 0.0
2016-Apr-29 17:10N 33°45' W 118°16'0 0.0
2016-Apr-29 16:33N 33°45' W 118°16'0 0.0
2016-Apr-29 15:32N 33°45' W 118°16'0 0.0
2016-Apr-29 14:33N 33°45' W 118°16'0 0.0
2016-Apr-29 13:33N 33°45' W 118°16'0 0.0
2016-Apr-29 12:33N 33°45' W 118°16'0 0.0
2016-Apr-29 02:33N 33°45' W 118°16'2 0.6
2016-Apr-28 22:33N 33°43' W 118°15'2 2.4
2016-Apr-28 21:33N 33°45' W 118°16'0 0.0
2016-Apr-28 20:33N 33°45' W 118°16'0 0.0
2016-Apr-28 16:04N 33°45' W 118°16'0 0.0
2016-Apr-28 15:33N 33°45' W 118°16'0 0.1
2016-Apr-28 14:33N 33°45' W 118°16'0 0.0
2016-Apr-28 13:33N 33°45' W 118°16'0 0.0
2016-Apr-27 17:17N 33°45' W 118°16'0 0.1
2016-Apr-27 16:28N 33°45' W 118°16'0 0.0
2016-Apr-27 15:33N 33°45' W 118°16'0 0.0
2016-Apr-27 13:33N 33°45' W 118°16'0 0.0
2016-Apr-27 12:33N 33°45' W 118°16'0 0.0
2016-Apr-26 20:27N 33°45' W 118°16'2 1.8
2016-Apr-26 19:33N 33°43' W 118°16'1 0.4
2016-Apr-26 17:18N 33°43' W 118°15'2 3.1
2016-Apr-26 16:33N 33°45' W 118°16'0 0.1
2016-Apr-26 15:34N 33°45' W 118°16'0 0.0
2016-Apr-26 14:22N 33°45' W 118°16'0 0.0
2016-Apr-25 16:27N 33°45' W 118°16'0 0.1
2016-Apr-25 15:33N 33°45' W 118°16'0 0.0
2016-Apr-25 14:33N 33°45' W 118°16'0 0.0
2016-Apr-25 13:33N 33°45' W 118°16'  

Dump ship's entire track history